Sitka, AK

2:16 AM AKDT on May 27, 2015 (GMT -0800)
Sitka Rocky Gutierrez | | Change Station
CLOSE
Current Station
Airport
Location: Sitka,
Elevation: 20 ft
Nearby Weather Stations

Elev 20 ft 57.05 °N, 135.36 °W | Updated 23 minutes ago

Light Rain
Light Rain Mist
50 °F
Feels Like 50 °F
N
5
Wind Variable Wind from NW

Today
High -- | Low -- °F
--% Chance of Precip.
Yesterday
High -- | Low -- °F
Precip. -- in
4:22 AM 9:35 PM
Waxing Gibbous, 66% visible
Pressure 30.19 in
Visibility 5.0 miles
Clouds Few 800 ft
Mostly Cloudy 1500 ft
Overcast 2400 ft
Dew Point 46 °F
Humidity 86%
Rainfall 0.00 in
Snow Depth Not available.
UV 0 out of 12
Pollen Not available.
Air Quality Not available.
Flu Activity Local Activity
METAR PASI 270953Z 31004KT 5SM -RA BR FEW008 BKN015 OVC024 10/08 A3019 RMK AO2 RAB41 SLP222 P0000 T01000078

More Conditions Fewer Conditions

Pressure 30.19 in
Visibility 5.0 miles
Clouds Few 800 ft
Mostly Cloudy 1500 ft
Overcast 2400 ft
Dew Point 46 °F
Humidity 86%
Rainfall 0.00 in
Snow Depth Not available.
UV 0 out of 12
Pollen Not available.
Air Quality Not available.
Flu Activity Local Activity
METAR PASI 270953Z 31004KT 5SM -RA BR FEW008 BKN015 OVC024 10/08 A3019 RMK AO2 RAB41 SLP222 P0000 T01000078

More Conditions Fewer Conditions

10-Day Weather Forecast

Almanac

Astronomy

May. 27, 2015 Rise Set
Actual Time
Civil Twilight
Nautical Twilight
Astronomical Twilight
Moon
Length of Visible Light
Length of Day
Tomorrow will be .
, % of the Moon is Illuminated

Today's Extremes

State Highs State Lows

Community

WunderPhotos

Upload Photos

1,824,635 photos uploaded!

WunderBlogs® & News

Nearby

Air Quality

  Air Quality AQ Index Pollutant
Not available.

Snow Depth

Station Depth Elevation

Earthquake Activity

City Distance Mag. Time & Date
Minimum magnitude displayed is 2.5.

Coastal Water Temperatures

Place Temperature

Stations

Nearby Weather Stations

Station Location Temp. Windchill Dew Point Humidity Wind Precip. Elev Updated Type